sensor_id;sensor_type;location;lat;lon;timestamp;pressure;altitude;pressure_sealevel;temperature;humidity
68456;BME280;55437;55.046;38.838;2022-10-17T18:00:31;100742.53;;;9.46;74.04
68456;BME280;55437;55.046;38.838;2022-10-17T18:02:59;100733.78;;;9.62;74.93
68456;BME280;55437;55.046;38.838;2022-10-17T18:05:25;100741.28;;;9.77;74.83
68456;BME280;55437;55.046;38.838;2022-10-17T18:07:51;100743.66;;;9.89;75.10
68456;BME280;55437;55.046;38.838;2022-10-17T18:10:16;100745.22;;;9.99;74.66
68456;BME280;55437;55.046;38.838;2022-10-17T18:12:42;100743.41;;;10.04;74.37
68456;BME280;55437;55.046;38.838;2022-10-17T18:15:08;100731.38;;;10.09;74.13
68456;BME280;55437;55.046;38.838;2022-10-17T18:17:34;100739.78;;;10.18;73.44
68456;BME280;55437;55.046;38.838;2022-10-17T18:20:00;100737.22;;;10.21;73.31
68456;BME280;55437;55.046;38.838;2022-10-17T18:22:28;100742.31;;;10.22;73.17
68456;BME280;55437;55.046;38.838;2022-10-17T18:24:53;100729.50;;;10.22;72.64
68456;BME280;55437;55.046;38.838;2022-10-17T18:27:19;100722.69;;;10.20;72.35
68456;BME280;55437;55.046;38.838;2022-10-17T18:29:45;100725.22;;;10.21;72.20
68456;BME280;55437;55.046;38.838;2022-10-17T18:32:12;100726.81;;;10.27;72.29
68456;BME280;55437;55.046;38.838;2022-10-17T18:34:37;100731.06;;;10.29;71.93
68456;BME280;55437;55.046;38.838;2022-10-17T18:37:03;100729.38;;;10.28;71.62
68456;BME280;55437;55.046;38.838;2022-10-17T18:39:29;100734.66;;;10.21;71.70
68456;BME280;55437;55.046;38.838;2022-10-17T18:41:55;100730.38;;;10.17;71.90
68456;BME280;55437;55.046;38.838;2022-10-17T18:44:21;100730.41;;;10.15;71.74
68456;BME280;55437;55.046;38.838;2022-10-17T18:46:46;100730.38;;;10.17;71.67
68456;BME280;55437;55.046;38.838;2022-10-17T18:49:14;100726.25;;;10.08;71.61
68456;BME280;55437;55.046;38.838;2022-10-17T18:51:41;100727.28;;;9.96;71.65
68456;BME280;55437;55.046;38.838;2022-10-17T18:54:12;100720.53;;;9.91;71.62
68456;BME280;55437;55.046;38.838;2022-10-17T18:56:42;100732.47;;;9.93;71.76
68456;BME280;55437;55.046;38.838;2022-10-17T18:59:08;100735.88;;;9.94;71.73
68456;BME280;55437;55.046;38.838;2022-10-17T19:01:34;100734.16;;;9.94;71.90
68456;BME280;55437;55.046;38.838;2022-10-17T19:04:00;100734.25;;;9.90;71.97
68456;BME280;55437;55.046;38.838;2022-10-17T19:06:27;100738.53;;;9.89;72.07
68456;BME280;55437;55.046;38.838;2022-10-17T19:08:57;100735.06;;;9.90;72.07
68456;BME280;55437;55.046;38.838;2022-10-17T19:11:25;100740.19;;;9.92;71.96
68456;BME280;55437;55.046;38.838;2022-10-17T19:13:52;100744.50;;;9.90;72.01
68456;BME280;55437;55.046;38.838;2022-10-17T19:16:22;100745.28;;;9.93;71.79
68456;BME280;55437;55.046;38.838;2022-10-17T19:19:10;100741.03;;;9.92;72.08
68456;BME280;55437;55.046;38.838;2022-10-17T19:21:37;100749.47;;;10.00;72.11
68456;BME280;55437;55.046;38.838;2022-10-17T19:24:05;100743.38;;;10.07;71.82
68456;BME280;55437;55.046;38.838;2022-10-17T19:26:33;100736.41;;;10.16;71.78
68456;BME280;55437;55.046;38.838;2022-10-17T19:29:00;100735.53;;;10.18;71.63
68456;BME280;55437;55.046;38.838;2022-10-17T19:31:28;100734.66;;;10.18;71.94
68456;BME280;55437;55.046;38.838;2022-10-17T19:33:55;100724.50;;;10.11;71.57
68456;BME280;55437;55.046;38.838;2022-10-17T19:36:31;100737.44;;;10.02;72.15
68456;BME280;55437;55.046;38.838;2022-10-17T19:38:59;100736.53;;;10.06;71.48
68456;BME280;55437;55.046;38.838;2022-10-17T19:41:25;100728.78;;;10.11;71.89
68456;BME280;55437;55.046;38.838;2022-10-17T19:43:51;100723.63;;;10.14;71.92
68456;BME280;55437;55.046;38.838;2022-10-17T19:46:19;100719.38;;;10.10;71.90
68456;BME280;55437;55.046;38.838;2022-10-17T19:48:47;100710.03;;;10.06;71.80
68456;BME280;55437;55.046;38.838;2022-10-17T19:51:14;100718.75;;;9.96;71.92
68456;BME280;55437;55.046;38.838;2022-10-17T19:53:40;100724.81;;;9.90;71.81
68456;BME280;55437;55.046;38.838;2022-10-17T19:56:07;100718.91;;;9.85;72.05
68456;BME280;55437;55.046;38.838;2022-10-17T19:58:34;100712.94;;;9.85;72.25
68456;BME280;55437;55.046;38.838;2022-10-17T20:01:12;100703.69;;;9.76;72.42
68456;BME280;55437;55.046;38.838;2022-10-17T20:03:38;100713.13;;;9.72;72.39
68456;BME280;55437;55.046;38.838;2022-10-17T20:06:05;100709.84;;;9.63;72.49
68456;BME280;55437;55.046;38.838;2022-10-17T20:08:31;100715.94;;;9.54;72.84
68456;BME280;55437;55.046;38.838;2022-10-17T20:11:02;100711.81;;;9.43;73.06
68456;BME280;55437;55.046;38.838;2022-10-17T20:13:30;100714.47;;;9.38;73.34
68456;BME280;55437;55.046;38.838;2022-10-17T20:15:56;100712.81;;;9.31;73.75
68456;BME280;55437;55.046;38.838;2022-10-17T20:18:23;100723.06;;;9.31;73.38
68456;BME280;55437;55.046;38.838;2022-10-17T20:20:49;100723.94;;;9.30;73.72
68456;BME280;55437;55.046;38.838;2022-10-17T20:23:15;100730.84;;;9.26;73.77
68456;BME280;55437;55.046;38.838;2022-10-17T20:25:41;100725.78;;;9.20;73.95
68456;BME280;55437;55.046;38.838;2022-10-17T20:28:07;100724.06;;;9.19;74.08
68456;BME280;55437;55.046;38.838;2022-10-17T20:30:33;100731.72;;;9.22;74.31
68456;BME280;55437;55.046;38.838;2022-10-17T20:32:59;100730.81;;;9.29;74.39
68456;BME280;55437;55.046;38.838;2022-10-17T20:35:24;100734.16;;;9.34;74.24
68456;BME280;55437;55.046;38.838;2022-10-17T20:37:50;100734.13;;;9.37;74.10
68456;BME280;55437;55.046;38.838;2022-10-17T20:40:20;100730.66;;;9.42;74.02
68456;BME280;55437;55.046;38.838;2022-10-17T20:42:46;100727.13;;;9.49;74.00
68456;BME280;55437;55.046;38.838;2022-10-17T20:45:11;100728.72;;;9.56;73.95
68456;BME280;55437;55.046;38.838;2022-10-17T20:47:37;100732.09;;;9.59;74.05
68456;BME280;55437;55.046;38.838;2022-10-17T20:50:08;100726.09;;;9.63;73.90
68456;BME280;55437;55.046;38.838;2022-10-17T20:52:36;100725.97;;;9.69;73.78
68456;BME280;55437;55.046;38.838;2022-10-17T20:55:02;100715.69;;;9.72;73.62
68456;BME280;55437;55.046;38.838;2022-10-17T20:57:28;100717.34;;;9.77;73.61
68456;BME280;55437;55.046;38.838;2022-10-17T20:59:54;100731.03;;;9.77;73.66
68456;BME280;55437;55.046;38.838;2022-10-17T21:02:19;100727.63;;;9.75;73.64
68456;BME280;55437;55.046;38.838;2022-10-17T21:04:45;100730.22;;;9.72;73.87
68456;BME280;55437;55.046;38.838;2022-10-17T21:07:12;100727.75;;;9.66;73.80
68456;BME280;55437;55.046;38.838;2022-10-17T21:09:38;100725.25;;;9.60;73.83
68456;BME280;55437;55.046;38.838;2022-10-17T21:12:04;100725.38;;;9.54;73.96
68456;BME280;55437;55.046;38.838;2022-10-17T21:14:30;100733.94;;;9.50;73.99
68456;BME280;55437;55.046;38.838;2022-10-17T21:16:58;100727.13;;;9.49;74.11
68456;BME280;55437;55.046;38.838;2022-10-17T21:19:23;100724.59;;;9.46;74.31
68456;BME280;55437;55.046;38.838;2022-10-17T21:21:49;100727.19;;;9.43;74.22
68456;BME280;55437;55.046;38.838;2022-10-17T21:24:15;100734.03;;;9.42;74.57
68456;BME280;55437;55.046;38.838;2022-10-17T21:26:43;100733.25;;;9.38;74.62
68456;BME280;55437;55.046;38.838;2022-10-17T21:29:11;100725.53;;;9.40;74.53
68456;BME280;55437;55.046;38.838;2022-10-17T21:31:39;100722.13;;;9.39;74.62
68456;BME280;55437;55.046;38.838;2022-10-17T21:34:11;100714.44;;;9.39;74.71
68456;BME280;55437;55.046;38.838;2022-10-17T21:36:37;100721.22;;;9.42;74.88
68456;BME280;55437;55.046;38.838;2022-10-17T21:39:03;100722.06;;;9.44;74.63
68456;BME280;55437;55.046;38.838;2022-10-17T21:41:29;100722.03;;;9.46;74.90
68456;BME280;55437;55.046;38.838;2022-10-17T21:43:59;100716.00;;;9.50;74.96
68456;BME280;55437;55.046;38.838;2022-10-17T21:46:26;100708.19;;;9.57;74.86
68456;BME280;55437;55.046;38.838;2022-10-17T21:48:52;100710.72;;;9.62;74.75
68456;BME280;55437;55.046;38.838;2022-10-17T21:51:22;100709.84;;;9.63;74.56
68456;BME280;55437;55.046;38.838;2022-10-17T21:53:49;100706.47;;;9.59;74.61
68456;BME280;55437;55.046;38.838;2022-10-17T21:56:18;100711.63;;;9.58;74.90
68456;BME280;55437;55.046;38.838;2022-10-17T21:58:44;100711.59;;;9.59;75.22
68456;BME280;55437;55.046;38.838;2022-10-17T22:01:15;100713.28;;;9.62;75.20
68456;BME280;55437;55.046;38.838;2022-10-17T22:03:46;100711.47;;;9.67;75.09
68456;BME280;55437;55.046;38.838;2022-10-17T22:06:18;100706.31;;;9.68;74.88
68456;BME280;55437;55.046;38.838;2022-10-17T22:08:44;100704.56;;;9.72;75.21
68456;BME280;55437;55.046;38.838;2022-10-17T22:11:35;100705.38;;;9.75;74.82
68456;BME280;55437;55.046;38.838;2022-10-17T22:14:03;100707.13;;;9.73;74.94
68456;BME280;55437;55.046;38.838;2022-10-17T22:16:29;100707.16;;;9.72;74.94
68456;BME280;55437;55.046;38.838;2022-10-17T22:19:02;100701.16;;;9.73;74.97
68456;BME280;55437;55.046;38.838;2022-10-17T22:21:28;100703.78;;;9.67;74.99
68456;BME280;55437;55.046;38.838;2022-10-17T22:24:01;100703.75;;;9.68;74.85
68456;BME280;55437;55.046;38.838;2022-10-17T22:26:29;100701.31;;;9.62;75.01
68456;BME280;55437;55.046;38.838;2022-10-17T22:28:55;100703.88;;;9.61;75.18
68456;BME280;55437;55.046;38.838;2022-10-17T22:31:21;100702.19;;;9.60;75.16
68456;BME280;55437;55.046;38.838;2022-10-17T22:33:47;100699.59;;;9.61;75.17
68456;BME280;55437;55.046;38.838;2022-10-17T22:36:13;100702.16;;;9.63;75.33
68456;BME280;55437;55.046;38.838;2022-10-17T22:38:38;100698.72;;;9.64;74.94
68456;BME280;55437;55.046;38.838;2022-10-17T22:41:04;100692.81;;;9.59;75.13
68456;BME280;55437;55.046;38.838;2022-10-17T22:43:30;100698.06;;;9.50;75.21
68456;BME280;55437;55.046;38.838;2022-10-17T22:45:59;100699.81;;;9.46;75.29
68456;BME280;55437;55.046;38.838;2022-10-17T22:48:26;100699.03;;;9.41;75.34
68456;BME280;55437;55.046;38.838;2022-10-17T22:50:53;100701.66;;;9.36;75.56
68456;BME280;55437;55.046;38.838;2022-10-17T22:53:20;100694.84;;;9.34;75.40
68456;BME280;55437;55.046;38.838;2022-10-17T22:56:02;100694.94;;;9.29;75.71
68456;BME280;55437;55.046;38.838;2022-10-17T22:58:30;100700.88;;;9.30;75.46
68456;BME280;55437;55.046;38.838;2022-10-17T23:00:56;100695.84;;;9.22;75.62
68456;BME280;55437;55.046;38.838;2022-10-17T23:03:23;100695.88;;;9.21;75.87
68456;BME280;55437;55.046;38.838;2022-10-17T23:05:50;100698.44;;;9.19;75.67
68456;BME280;55437;55.046;38.838;2022-10-17T23:08:16;100695.88;;;9.19;75.79
68456;BME280;55437;55.046;38.838;2022-10-17T23:10:42;100703.63;;;9.16;75.53
68456;BME280;55437;55.046;38.838;2022-10-17T23:13:08;100693.44;;;9.12;75.88
68456;BME280;55437;55.046;38.838;2022-10-17T23:15:34;100690.06;;;9.08;75.80
68456;BME280;55437;55.046;38.838;2022-10-17T23:18:02;100690.16;;;8.99;76.09
68456;BME280;55437;55.046;38.838;2022-10-17T23:20:28;100688.47;;;8.98;76.28
68456;BME280;55437;55.046;38.838;2022-10-17T23:22:55;100689.31;;;9.00;75.87
68456;BME280;55437;55.046;38.838;2022-10-17T23:25:20;100690.19;;;8.96;76.08
68456;BME280;55437;55.046;38.838;2022-10-17T23:27:46;100680.03;;;8.91;76.31
68456;BME280;55437;55.046;38.838;2022-10-17T23:30:12;100674.91;;;8.90;76.20
68456;BME280;55437;55.046;38.838;2022-10-17T23:32:39;100679.19;;;8.91;76.31
68456;BME280;55437;55.046;38.838;2022-10-17T23:35:06;100680.88;;;8.90;76.35
68456;BME280;55437;55.046;38.838;2022-10-17T23:37:32;100681.78;;;8.88;76.40
68456;BME280;55437;55.046;38.838;2022-10-17T23:39:58;100688.59;;;8.87;76.58
68456;BME280;55437;55.046;38.838;2022-10-17T23:42:23;100687.75;;;8.87;76.72
68456;BME280;55437;55.046;38.838;2022-10-17T23:44:49;100680.94;;;8.86;76.64
68456;BME280;55437;55.046;38.838;2022-10-17T23:47:17;100674.94;;;8.88;76.86
68456;BME280;55437;55.046;38.838;2022-10-17T23:49:43;100683.47;;;8.87;77.04
68456;BME280;55437;55.046;38.838;2022-10-17T23:52:08;100674.06;;;8.89;77.04
68456;BME280;55437;55.046;38.838;2022-10-17T23:54:36;100671.50;;;8.91;77.02
68456;BME280;55437;55.046;38.838;2022-10-17T23:57:02;100667.25;;;8.88;77.04
68456;BME280;55437;55.046;38.838;2022-10-17T23:59:30;100668.97;;;8.88;76.95
